createdAt,value
2022-08-05T00:00:56.219Z,24.85
2022-08-05T00:03:45.578Z,24.81
2022-08-05T00:06:28.942Z,24.76
2022-08-05T00:09:01.315Z,24.73
2022-08-05T00:11:30.665Z,24.67
2022-08-05T00:14:12.821Z,24.70
2022-08-05T00:16:52.983Z,24.59
2022-08-05T00:19:25.038Z,24.66
2022-08-05T00:22:04.357Z,24.58
2022-08-05T00:24:33.184Z,24.56
2022-08-05T00:27:04.467Z,24.67
2022-08-05T00:29:38.964Z,24.70
2022-08-05T00:32:13.217Z,24.53
2022-08-05T00:35:03.438Z,24.49
2022-08-05T00:37:52.496Z,24.42
2022-08-05T00:40:28.425Z,24.37
2022-08-05T00:42:59.453Z,24.43
2022-08-05T00:45:38.267Z,24.39
2022-08-05T00:48:09.416Z,24.32
2022-08-05T00:50:41.406Z,24.29
2022-08-05T00:53:59.858Z,24.29
2022-08-05T00:56:05.653Z,24.28
2022-08-05T00:58:37.229Z,24.21
2022-08-05T01:01:09.073Z,24.19
2022-08-05T01:03:39.017Z,24.16
2022-08-05T01:06:11.424Z,24.19
2022-08-05T01:08:47.266Z,24.15
2022-08-05T01:11:22.248Z,24.08
2022-08-05T01:14:08.713Z,24.00
2022-08-05T01:16:49.266Z,23.90
2022-08-05T01:19:36.694Z,23.93
2022-08-05T01:22:31.800Z,23.85
2022-08-05T01:25:39.945Z,23.73
2022-08-05T01:28:30.582Z,23.75
2022-08-05T01:31:03.377Z,23.72
2022-08-05T01:33:36.517Z,23.76
2022-08-05T01:36:12.856Z,23.69
2022-08-05T01:38:42.294Z,23.77
2022-08-05T01:41:12.342Z,23.72
2022-08-05T01:43:45.064Z,23.65
2022-08-05T01:46:42.828Z,23.69
2022-08-05T01:49:23.118Z,23.70
2022-08-05T01:52:01.102Z,23.64
2022-08-05T01:54:32.989Z,23.63
2022-08-05T01:58:09.431Z,23.71
2022-08-05T01:59:54.220Z,23.73
2022-08-05T02:02:26.105Z,23.76
2022-08-05T02:04:59.785Z,23.79
2022-08-05T02:07:30.501Z,23.85
2022-08-05T02:10:00.380Z,23.89
2022-08-05T02:12:34.886Z,23.97
2022-08-05T02:15:12.205Z,24.04
2022-08-05T02:18:31.093Z,24.14
2022-08-05T02:20:49.351Z,24.23
2022-08-05T02:23:20.864Z,24.32
2022-08-05T02:25:51.172Z,24.36
2022-08-05T02:28:28.427Z,24.33
2022-08-05T02:31:04.151Z,24.46
2022-08-05T02:33:38.801Z,24.45
2022-08-05T02:36:13.579Z,24.46
2022-08-05T02:38:53.159Z,24.48
2022-08-05T02:41:28.703Z,24.47
2022-08-05T02:44:12.146Z,24.55
2022-08-05T02:46:58.387Z,24.60
2022-08-05T02:49:36.399Z,24.49
2022-08-05T02:52:09.141Z,24.59
2022-08-05T02:54:42.159Z,24.56
2022-08-05T02:58:10.618Z,24.53
2022-08-05T03:00:02.591Z,24.51
2022-08-05T03:02:36.187Z,24.50
2022-08-05T03:05:06.880Z,24.51
2022-08-05T03:07:59.413Z,24.49
2022-08-05T03:10:25.681Z,24.52
2022-08-05T03:12:55.050Z,24.46
2022-08-05T03:15:24.638Z,24.40
2022-08-05T03:17:57.637Z,24.41
2022-08-05T03:20:26.911Z,24.37
2022-08-05T03:22:57.640Z,24.37
2022-08-05T03:25:33.342Z,24.28
2022-08-05T03:28:18.510Z,24.20
2022-08-05T03:30:48.589Z,24.13
2022-08-05T03:33:19.872Z,24.09
2022-08-05T03:35:51.623Z,24.06
2022-08-05T03:38:32.644Z,24.06
2022-08-05T03:41:08.346Z,24.06
2022-08-05T03:44:08.533Z,24.03
2022-08-05T03:46:30.062Z,23.96
2022-08-05T03:49:02.764Z,23.88
2022-08-05T03:52:39.132Z,23.78
2022-08-05T03:55:34.230Z,23.70
2022-08-05T03:57:41.965Z,23.59
2022-08-05T04:00:15.920Z,23.53
2022-08-05T04:02:57.890Z,23.51
2022-08-05T04:05:33.920Z,23.42
2022-08-05T04:08:05.578Z,23.44
2022-08-05T04:10:38.167Z,23.40
2022-08-05T04:13:08.168Z,23.32
2022-08-05T04:15:37.085Z,23.38
2022-08-05T04:18:09.345Z,23.33
2022-08-05T04:20:41.147Z,23.29
2022-08-05T04:23:12.254Z,23.33
2022-08-05T04:25:57.231Z,23.25
2022-08-05T04:28:31.859Z,23.17
2022-08-05T04:31:01.642Z,23.10
2022-08-05T04:34:17.537Z,23.12
2022-08-05T04:36:44.825Z,23.12
2022-08-05T04:39:15.987Z,23.10
2022-08-05T04:41:44.935Z,23.07
2022-08-05T04:44:14.897Z,23.07
2022-08-05T04:46:49.841Z,23.05
2022-08-05T04:49:24.750Z,23.08
2022-08-05T04:52:08.466Z,23.11
2022-08-05T04:54:37.209Z,23.12
2022-08-05T04:57:06.121Z,23.02
2022-08-05T04:59:38.885Z,23.10
2022-08-05T05:02:36.463Z,23.08
2022-08-05T05:05:01.722Z,23.16
2022-08-05T05:07:35.638Z,23.17
2022-08-05T05:10:06.601Z,23.10
2022-08-05T05:12:36.834Z,23.21
2022-08-05T05:15:10.938Z,23.36
2022-08-05T05:17:57.019Z,23.49
2022-08-05T05:20:28.328Z,23.68
2022-08-05T05:22:59.147Z,23.84
2022-08-05T05:25:40.592Z,23.99
2022-08-05T05:28:10.232Z,24.10
2022-08-05T05:30:39.314Z,24.24
2022-08-05T05:33:17.213Z,24.40
2022-08-05T05:35:47.405Z,24.67
2022-08-05T05:38:22.457Z,25.07
2022-08-05T05:40:57.036Z,25.56
2022-08-05T05:43:57.524Z,25.88
2022-08-05T05:46:17.221Z,25.94
2022-08-05T05:48:48.033Z,25.83
2022-08-05T05:51:21.729Z,25.70
2022-08-05T05:53:57.865Z,25.49
2022-08-05T05:56:33.085Z,25.47
2022-08-05T05:59:05.338Z,25.37
2022-08-05T06:01:37.519Z,25.36
2022-08-05T06:04:11.986Z,25.22
2022-08-05T06:06:42.752Z,25.21
2022-08-05T06:09:17.036Z,25.19
2022-08-05T06:11:59.177Z,25.20
2022-08-05T06:14:31.271Z,25.24
2022-08-05T06:17:02.115Z,25.32
2022-08-05T06:19:56.588Z,25.26
2022-08-05T06:22:30.623Z,25.26
2022-08-05T06:25:25.165Z,25.30
2022-08-05T06:28:12.174Z,25.33
2022-08-05T06:30:44.064Z,25.40
2022-08-05T06:33:13.109Z,25.44
2022-08-05T06:36:07.183Z,25.52
2022-08-05T06:38:37.295Z,25.55
2022-08-05T06:41:08.326Z,25.59
2022-08-05T06:43:58.298Z,25.60
2022-08-05T06:46:29.765Z,25.63
2022-08-05T06:49:00.884Z,25.66
2022-08-05T06:51:31.336Z,25.69
2022-08-05T06:54:01.964Z,25.82
2022-08-05T06:56:34.838Z,25.81
2022-08-05T06:59:08.686Z,25.88
2022-08-05T07:01:40.674Z,25.83
2022-08-05T07:04:14.300Z,25.87
2022-08-05T07:06:50.455Z,25.95
2022-08-05T07:09:19.602Z,26.10
2022-08-05T07:11:51.732Z,26.28
2022-08-05T07:14:37.949Z,26.41
2022-08-05T07:17:59.534Z,26.68
2022-08-05T07:22:45.720Z,27.03
2022-08-05T07:25:54.068Z,27.13
2022-08-05T07:28:09.598Z,27.36
2022-08-05T07:30:41.582Z,27.56
2022-08-05T07:33:16.388Z,27.70
2022-08-05T07:36:04.850Z,27.91
2022-08-05T07:38:42.932Z,28.11
2022-08-05T07:42:07.027Z,28.22
2022-08-05T07:44:12.082Z,28.45
2022-08-05T07:46:48.453Z,28.57
2022-08-05T07:49:18.889Z,28.69
2022-08-05T07:51:53.290Z,28.84
2022-08-05T07:54:30.629Z,28.98
2022-08-05T07:57:17.965Z,29.14
2022-08-05T07:59:52.580Z,29.21
2022-08-05T08:02:26.685Z,29.28
2022-08-05T08:05:00.051Z,29.38
2022-08-05T08:07:29.418Z,29.48
2022-08-05T08:10:09.107Z,29.49
2022-08-05T08:12:49.440Z,29.66
2022-08-05T08:16:33.455Z,29.66
2022-08-05T08:18:14.321Z,29.87
2022-08-05T08:21:02.981Z,29.95
2022-08-05T08:24:01.768Z,30.19
2022-08-05T08:26:29.290Z,30.35
2022-08-05T08:29:21.499Z,30.48
2022-08-05T08:31:52.079Z,30.73
2022-08-05T08:34:30.196Z,30.83
2022-08-05T08:37:04.989Z,30.54
2022-08-05T08:39:37.703Z,30.56
2022-08-05T08:42:22.515Z,30.75
2022-08-05T08:45:23.303Z,30.67
2022-08-05T08:48:12.725Z,30.91
2022-08-05T08:51:03.225Z,31.06
2022-08-05T08:53:29.424Z,31.16
2022-08-05T08:56:04.776Z,31.07
2022-08-05T08:58:43.475Z,31.26
2022-08-05T09:01:18.343Z,31.36
2022-08-05T09:03:52.828Z,31.07
2022-08-05T09:06:28.559Z,31.28
2022-08-05T09:09:00.422Z,31.29
2022-08-05T09:11:51.549Z,31.32
2022-08-05T09:14:56.938Z,31.23
2022-08-05T09:17:40.199Z,31.12
2022-08-05T09:20:02.251Z,31.22
2022-08-05T09:23:18.887Z,31.34
2022-08-05T09:26:01.505Z,31.54
2022-08-05T09:28:34.238Z,31.29
2022-08-05T09:31:44.060Z,31.15
2022-08-05T09:33:56.507Z,31.27
2022-08-05T09:36:54.036Z,31.30
2022-08-05T09:39:39.453Z,31.52
2022-08-05T09:42:17.521Z,31.35
2022-08-05T09:44:56.554Z,31.80
2022-08-05T09:47:48.041Z,32.01
2022-08-05T09:50:37.753Z,32.00
2022-08-05T09:53:09.111Z,32.12
2022-08-05T09:55:56.895Z,32.17
2022-08-05T09:58:31.924Z,32.31
2022-08-05T10:01:13.388Z,32.12
2022-08-05T10:03:59.445Z,31.84
2022-08-05T10:06:28.929Z,31.69
2022-08-05T10:09:28.279Z,31.66
2022-08-05T10:12:30.576Z,31.59
2022-08-05T10:15:20.450Z,31.60
2022-08-05T10:18:09.117Z,31.71
2022-08-05T10:20:41.200Z,31.89
2022-08-05T10:23:34.431Z,31.98
2022-08-05T10:26:07.006Z,32.18
2022-08-05T10:28:36.474Z,32.32
2022-08-05T10:32:47.787Z,32.13
2022-08-05T10:33:56.836Z,32.05
2022-08-05T10:36:26.960Z,31.85
2022-08-05T10:39:01.248Z,32.00
2022-08-05T10:42:00.904Z,32.31
2022-08-05T10:44:41.951Z,32.44
2022-08-05T10:47:26.426Z,32.50
2022-08-05T10:50:32.004Z,32.62
2022-08-05T10:53:01.077Z,32.71
2022-08-05T10:55:38.525Z,32.94
2022-08-05T10:58:22.515Z,32.93
2022-08-05T11:01:08.505Z,32.96
2022-08-05T11:04:01.406Z,32.94
2022-08-05T11:06:30.742Z,32.96
2022-08-05T11:09:16.750Z,33.14
2022-08-05T11:11:53.711Z,33.13
2022-08-05T11:14:57.446Z,33.31
2022-08-05T11:17:59.134Z,32.92
2022-08-05T11:20:51.506Z,32.97
2022-08-05T11:24:04.527Z,33.03
2022-08-05T11:26:33.721Z,32.88
2022-08-05T11:29:11.817Z,32.89
2022-08-05T11:31:58.329Z,33.17
2022-08-05T11:34:51.547Z,33.40
2022-08-05T11:38:28.673Z,33.41
2022-08-05T11:41:34.592Z,33.50
2022-08-05T11:44:05.723Z,33.34
2022-08-05T11:47:10.195Z,33.56
2022-08-05T11:49:29.147Z,33.65
2022-08-05T11:52:11.191Z,33.63
2022-08-05T11:54:41.441Z,33.64
2022-08-05T11:57:25.407Z,33.35
2022-08-05T11:59:56.341Z,33.36
2022-08-05T12:02:33.046Z,33.43
2022-08-05T12:05:07.010Z,33.40
2022-08-05T12:08:10.499Z,33.29
2022-08-05T12:10:43.633Z,33.42
2022-08-05T12:13:48.422Z,33.63
2022-08-05T12:16:15.085Z,33.66
2022-08-05T12:18:49.399Z,33.69
2022-08-05T12:21:26.792Z,33.84
2022-08-05T12:24:04.840Z,33.70
2022-08-05T12:26:36.274Z,33.76
2022-08-05T12:29:09.327Z,33.84
2022-08-05T12:31:42.356Z,33.79
2022-08-05T12:34:20.569Z,33.79
2022-08-05T12:36:53.320Z,33.92
2022-08-05T12:39:23.722Z,33.64
2022-08-05T12:42:05.884Z,33.70
2022-08-05T12:44:37.723Z,33.28
2022-08-05T12:47:12.426Z,33.59
2022-08-05T12:50:05.335Z,33.58
2022-08-05T12:52:38.904Z,33.63
2022-08-05T12:55:23.774Z,33.71
2022-08-05T12:58:48.201Z,33.79
2022-08-05T13:02:02.435Z,33.83
2022-08-05T13:03:42.411Z,33.92
2022-08-05T13:06:17.707Z,33.94
2022-08-05T13:08:52.061Z,33.96
2022-08-05T13:11:59.787Z,33.84
2022-08-05T13:14:24.801Z,33.73
2022-08-05T13:17:12.014Z,33.50
2022-08-05T13:19:52.679Z,33.59
2022-08-05T13:22:29.548Z,33.52
2022-08-05T13:25:05.522Z,33.66
2022-08-05T13:27:38.562Z,33.75
2022-08-05T13:30:34.659Z,33.78
2022-08-05T13:33:01.598Z,33.71
2022-08-05T13:35:47.138Z,33.69
2022-08-05T13:38:31.153Z,33.62
2022-08-05T13:41:06.871Z,33.72
2022-08-05T13:43:45.652Z,33.78
2022-08-05T13:46:37.702Z,33.63
2022-08-05T13:49:12.777Z,33.63
2022-08-05T13:51:46.343Z,33.67
2022-08-05T13:54:17.159Z,33.66
2022-08-05T13:56:51.987Z,33.74
2022-08-05T13:59:24.157Z,33.62
2022-08-05T14:01:58.414Z,33.58
2022-08-05T14:04:49.574Z,33.54
2022-08-05T14:07:56.527Z,33.58
2022-08-05T14:10:11.806Z,33.25
2022-08-05T14:12:48.433Z,33.07
2022-08-05T14:16:07.404Z,32.90
2022-08-05T14:18:15.054Z,32.59
2022-08-05T14:20:48.248Z,32.42
2022-08-05T14:23:25.177Z,32.36
2022-08-05T14:25:58.063Z,32.33
2022-08-05T14:28:30.415Z,32.14
2022-08-05T14:31:00.746Z,32.06
2022-08-05T14:33:57.021Z,31.89
2022-08-05T14:36:21.328Z,31.73
2022-08-05T14:38:50.979Z,31.64
2022-08-05T14:41:19.879Z,31.65
2022-08-05T14:44:01.473Z,31.58
2022-08-05T14:46:35.383Z,31.26
2022-08-05T14:49:07.536Z,31.12
2022-08-05T14:51:38.082Z,31.10
2022-08-05T14:54:28.002Z,31.04
2022-08-05T14:56:57.448Z,30.92
2022-08-05T14:59:29.153Z,30.83
2022-08-05T15:01:58.841Z,30.66
2022-08-05T15:04:29.012Z,30.58
2022-08-05T15:06:58.900Z,30.54
2022-08-05T15:09:51.411Z,30.55
2022-08-05T15:12:17.225Z,30.35
2022-08-05T15:14:49.967Z,30.22
2022-08-05T15:17:45.896Z,30.09
2022-08-05T15:20:19.103Z,30.07
2022-08-05T15:22:54.249Z,30.11
2022-08-05T15:25:50.910Z,30.24
2022-08-05T15:28:14.768Z,30.32
2022-08-05T15:30:46.771Z,30.27
2022-08-05T15:34:04.588Z,30.11
2022-08-05T15:36:17.773Z,30.01
2022-08-05T15:41:00.920Z,29.97
2022-08-05T15:41:57.267Z,29.72
2022-08-05T15:44:30.031Z,29.64
2022-08-05T15:47:03.627Z,29.55
2022-08-05T15:49:52.103Z,29.22
2022-08-05T15:52:29.196Z,29.08
2022-08-05T15:54:58.736Z,29.05
2022-08-05T15:57:27.864Z,29.05
2022-08-05T16:00:03.790Z,29.06
2022-08-05T16:02:34.279Z,29.10
2022-08-05T16:05:03.346Z,29.06
2022-08-05T16:07:34.438Z,28.93
2022-08-05T16:10:04.495Z,28.89
2022-08-05T16:12:38.427Z,28.95
2022-08-05T16:15:07.774Z,28.89
2022-08-05T16:17:39.722Z,28.93
2022-08-05T16:20:11.153Z,28.98
2022-08-05T16:22:40.734Z,28.85
2022-08-05T16:25:10.790Z,28.78
2022-08-05T16:28:00.293Z,28.77
2022-08-05T16:30:29.363Z,28.80
2022-08-05T16:33:00.349Z,28.77
2022-08-05T16:35:32.159Z,28.71
2022-08-05T16:38:24.700Z,28.72
2022-08-05T16:40:59.708Z,28.54
2022-08-05T16:43:31.209Z,28.55
2022-08-05T16:46:06.860Z,28.42
2022-08-05T16:48:43.098Z,28.38
2022-08-05T16:51:12.229Z,28.22
2022-08-05T16:54:05.211Z,28.23
2022-08-05T16:56:33.610Z,28.19
2022-08-05T16:59:08.036Z,28.14
2022-08-05T17:01:54.391Z,27.96
2022-08-05T17:04:27.843Z,27.93
2022-08-05T17:07:00.901Z,27.87
2022-08-05T17:09:38.974Z,27.84
2022-08-05T17:12:22.549Z,27.85
2022-08-05T17:15:09.391Z,27.80
2022-08-05T17:17:41.963Z,27.80
2022-08-05T17:20:14.785Z,27.71
2022-08-05T17:22:45.409Z,27.66
2022-08-05T17:25:33.720Z,27.59
2022-08-05T17:28:09.193Z,27.46
2022-08-05T17:30:50.221Z,27.42
2022-08-05T17:33:20.201Z,27.42
2022-08-05T17:36:09.013Z,27.32
2022-08-05T17:38:39.853Z,27.27
2022-08-05T17:41:22.813Z,27.19
2022-08-05T17:43:59.559Z,27.18
2022-08-05T17:46:28.273Z,27.17
2022-08-05T17:48:57.037Z,27.13
2022-08-05T17:51:28.196Z,27.20
2022-08-05T17:54:09.298Z,27.19
2022-08-05T17:56:38.608Z,27.17
2022-08-05T17:59:07.370Z,27.08
2022-08-05T18:01:42.702Z,26.97
2022-08-05T18:04:21.337Z,26.84
2022-08-05T18:07:00.318Z,26.76
2022-08-05T18:10:00.161Z,26.67
2022-08-05T18:12:24.042Z,26.54
2022-08-05T18:14:53.393Z,26.52
2022-08-05T18:17:58.740Z,26.47
2022-08-05T18:20:14.069Z,26.43
2022-08-05T18:22:53.932Z,26.45
2022-08-05T18:25:24.019Z,26.30
2022-08-05T18:27:53.989Z,26.29
2022-08-05T18:30:22.689Z,26.20
2022-08-05T18:33:00.474Z,26.20
2022-08-05T18:36:01.126Z,26.17
2022-08-05T18:38:26.005Z,26.15
2022-08-05T18:41:54.088Z,26.06
2022-08-05T18:43:49.047Z,26.07
2022-08-05T18:46:19.924Z,25.99
2022-08-05T18:48:51.903Z,25.96
2022-08-05T18:52:05.294Z,26.05
2022-08-05T18:54:31.711Z,25.82
2022-08-05T18:57:01.067Z,25.79
2022-08-05T18:59:43.308Z,25.70
2022-08-05T19:02:26.282Z,25.71
2022-08-05T19:05:02.885Z,25.74
2022-08-05T19:07:47.959Z,25.68
2022-08-05T19:10:28.434Z,25.59
2022-08-05T19:12:57.895Z,25.47
2022-08-05T19:15:59.645Z,25.31
2022-08-05T19:18:22.115Z,25.26
2022-08-05T19:20:52.658Z,25.18
2022-08-05T19:24:07.162Z,25.19
2022-08-05T19:26:14.174Z,25.16
2022-08-05T19:28:43.700Z,25.14
2022-08-05T19:31:17.954Z,25.14
2022-08-05T19:33:56.696Z,25.04
2022-08-05T19:36:26.198Z,24.98
2022-08-05T19:39:00.901Z,24.95
2022-08-05T19:41:58.450Z,24.92
2022-08-05T19:44:22.742Z,24.90
2022-08-05T19:46:58.008Z,24.92
2022-08-05T19:49:27.316Z,24.85
2022-08-05T19:52:08.374Z,24.83
2022-08-05T19:54:48.262Z,24.77
2022-08-05T19:57:19.189Z,24.70
2022-08-05T20:00:09.769Z,24.65
2022-08-05T20:02:38.680Z,24.63
2022-08-05T20:05:16.468Z,24.58
2022-08-05T20:07:58.875Z,24.52
2022-08-05T20:10:28.339Z,24.37
2022-08-05T20:12:59.203Z,24.33
2022-08-05T20:15:50.765Z,24.34
2022-08-05T20:18:32.548Z,24.32
2022-08-05T20:21:04.662Z,24.35
2022-08-05T20:23:40.551Z,24.21
2022-08-05T20:26:20.646Z,24.24
2022-08-05T20:28:52.797Z,24.23
2022-08-05T20:31:28.739Z,24.15
2022-08-05T20:34:12.772Z,24.00
2022-08-05T20:36:43.672Z,23.90
2022-08-05T20:39:13.576Z,23.75
2022-08-05T20:41:47.710Z,23.73
2022-08-05T20:44:29.663Z,23.66
2022-08-05T20:47:01.199Z,23.55
2022-08-05T20:49:30.112Z,23.44
2022-08-05T20:52:06.990Z,23.36
2022-08-05T20:54:55.546Z,23.31
2022-08-05T20:57:43.603Z,23.31
2022-08-05T21:00:40.962Z,23.23
2022-08-05T21:03:07.898Z,23.02
2022-08-05T21:05:54.093Z,22.97
2022-08-05T21:08:28.081Z,22.95
2022-08-05T21:11:12.089Z,22.93
2022-08-05T21:13:48.498Z,22.89
2022-08-05T21:16:29.524Z,22.88
2022-08-05T21:19:00.482Z,22.85
2022-08-05T21:21:44.454Z,22.81
2022-08-05T21:24:19.649Z,22.79
2022-08-05T21:26:53.495Z,22.77
2022-08-05T21:29:31.312Z,22.76
2022-08-05T21:32:03.866Z,22.74
2022-08-05T21:34:33.058Z,22.65
2022-08-05T21:37:04.807Z,22.51
2022-08-05T21:39:34.776Z,22.45
2022-08-05T21:42:30.530Z,22.49
2022-08-05T21:44:58.576Z,22.53
2022-08-05T21:47:55.823Z,22.55
2022-08-05T21:50:17.616Z,22.48
2022-08-05T21:52:47.408Z,22.46
2022-08-05T21:55:17.189Z,22.44
2022-08-05T21:57:46.501Z,22.40
2022-08-05T22:00:16.033Z,22.38
2022-08-05T22:02:46.870Z,22.42
2022-08-05T22:05:16.030Z,22.38
2022-08-05T22:07:58.812Z,22.29
2022-08-05T22:10:31.128Z,22.28
2022-08-05T22:13:08.755Z,22.24
2022-08-05T22:16:02.071Z,22.12
2022-08-05T22:18:39.027Z,22.05
2022-08-05T22:21:19.366Z,22.07
2022-08-05T22:24:09.058Z,21.96
2022-08-05T22:26:59.953Z,22.06
2022-08-05T22:29:30.874Z,22.05
2022-08-05T22:32:03.307Z,22.03
2022-08-05T22:34:34.031Z,22.09
2022-08-05T22:37:04.003Z,22.04
2022-08-05T22:39:34.491Z,22.12
2022-08-05T22:42:12.268Z,22.08
2022-08-05T22:44:53.602Z,22.15
2022-08-05T22:47:28.679Z,22.15
2022-08-05T22:50:20.445Z,22.11
2022-08-05T22:52:52.506Z,22.15
2022-08-05T22:55:22.547Z,22.03
2022-08-05T22:57:51.531Z,21.88
2022-08-05T23:00:22.946Z,21.78
2022-08-05T23:02:53.417Z,21.94
2022-08-05T23:05:24.589Z,21.92
2022-08-05T23:07:53.531Z,21.94
2022-08-05T23:10:23.528Z,21.91
2022-08-05T23:12:54.621Z,21.86
2022-08-05T23:15:27.036Z,21.90
2022-08-05T23:18:02.208Z,21.91
2022-08-05T23:20:37.300Z,21.78
2022-08-05T23:23:08.250Z,21.77
2022-08-05T23:25:52.144Z,21.84
2022-08-05T23:28:29.125Z,21.82
2022-08-05T23:31:06.967Z,21.69
2022-08-05T23:34:03.805Z,21.68
2022-08-05T23:36:39.876Z,21.69
2022-08-05T23:39:17.501Z,21.62
2022-08-05T23:42:01.351Z,21.67
2022-08-05T23:44:31.508Z,21.64
2022-08-05T23:47:02.627Z,21.63
2022-08-05T23:49:45.651Z,21.63
2022-08-05T23:52:29.295Z,21.61
2022-08-05T23:55:01.580Z,21.65
2022-08-05T23:57:30.450Z,21.57
